sensor_id;sensor_type;location;lat;lon;timestamp;P1;durP1;ratioP1;P2;durP2;ratioP2
54452;SDS011;40363;52.270;10.546;2023-05-10T00:01:12;5.45;;;3.60;;
54452;SDS011;40363;52.270;10.546;2023-05-10T00:03:39;6.93;;;3.15;;
54452;SDS011;40363;52.270;10.546;2023-05-10T00:06:05;4.88;;;3.78;;
54452;SDS011;40363;52.270;10.546;2023-05-10T00:08:32;8.07;;;3.95;;
54452;SDS011;40363;52.270;10.546;2023-05-10T00:10:59;4.03;;;2.80;;
54452;SDS011;40363;52.270;10.546;2023-05-10T00:13:25;5.90;;;2.95;;
54452;SDS011;40363;52.270;10.546;2023-05-10T00:15:53;6.07;;;3.67;;
54452;SDS011;40363;52.270;10.546;2023-05-10T00:18:20;7.15;;;3.90;;
54452;SDS011;40363;52.270;10.546;2023-05-10T00:20:46;4.68;;;3.53;;
54452;SDS011;40363;52.270;10.546;2023-05-10T00:23:13;5.35;;;3.25;;
54452;SDS011;40363;52.270;10.546;2023-05-10T00:25:40;4.93;;;3.03;;
54452;SDS011;40363;52.270;10.546;2023-05-10T00:28:07;5.38;;;3.33;;
54452;SDS011;40363;52.270;10.546;2023-05-10T00:30:33;6.80;;;3.47;;
54452;SDS011;40363;52.270;10.546;2023-05-10T00:33:01;5.00;;;3.60;;
54452;SDS011;40363;52.270;10.546;2023-05-10T00:35:28;3.85;;;3.15;;
54452;SDS011;40363;52.270;10.546;2023-05-10T00:37:54;5.97;;;3.30;;
54452;SDS011;40363;52.270;10.546;2023-05-10T00:40:21;3.85;;;3.08;;
54452;SDS011;40363;52.270;10.546;2023-05-10T00:42:48;4.65;;;2.85;;
54452;SDS011;40363;52.270;10.546;2023-05-10T00:45:15;5.70;;;3.22;;
54452;SDS011;40363;52.270;10.546;2023-05-10T00:47:42;4.70;;;3.00;;
54452;SDS011;40363;52.270;10.546;2023-05-10T00:50:12;5.22;;;3.30;;
54452;SDS011;40363;52.270;10.546;2023-05-10T00:52:40;7.72;;;3.00;;
54452;SDS011;40363;52.270;10.546;2023-05-10T00:55:09;5.60;;;3.40;;
54452;SDS011;40363;52.270;10.546;2023-05-10T00:57:38;4.88;;;2.97;;
54452;SDS011;40363;52.270;10.546;2023-05-10T01:00:05;4.07;;;2.78;;
54452;SDS011;40363;52.270;10.546;2023-05-10T01:02:39;6.80;;;3.13;;
54452;SDS011;40363;52.270;10.546;2023-05-10T01:05:07;5.32;;;3.38;;
54452;SDS011;40363;52.270;10.546;2023-05-10T01:07:35;7.80;;;3.13;;
54452;SDS011;40363;52.270;10.546;2023-05-10T01:10:02;5.10;;;2.97;;
54452;SDS011;40363;52.270;10.546;2023-05-10T01:12:29;5.18;;;3.15;;
54452;SDS011;40363;52.270;10.546;2023-05-10T01:14:56;3.17;;;2.70;;
54452;SDS011;40363;52.270;10.546;2023-05-10T01:17:23;4.63;;;2.95;;
54452;SDS011;40363;52.270;10.546;2023-05-10T01:19:50;6.65;;;3.35;;
54452;SDS011;40363;52.270;10.546;2023-05-10T01:22:25;5.22;;;3.75;;
54452;SDS011;40363;52.270;10.546;2023-05-10T01:25:18;4.88;;;3.35;;
54452;SDS011;40363;52.270;10.546;2023-05-10T01:28:12;5.03;;;3.40;;
54452;SDS011;40363;52.270;10.546;2023-05-10T01:33:51;4.13;;;2.75;;
54452;SDS011;40363;52.270;10.546;2023-05-10T01:36:23;6.15;;;3.50;;
54452;SDS011;40363;52.270;10.546;2023-05-10T01:38:54;5.68;;;2.75;;
54452;SDS011;40363;52.270;10.546;2023-05-10T01:41:28;7.20;;;3.20;;
54452;SDS011;40363;52.270;10.546;2023-05-10T01:44:00;4.40;;;2.70;;
54452;SDS011;40363;52.270;10.546;2023-05-10T01:46:37;6.57;;;3.58;;
54452;SDS011;40363;52.270;10.546;2023-05-10T01:49:07;7.65;;;3.70;;
54452;SDS011;40363;52.270;10.546;2023-05-10T01:51:38;5.50;;;3.38;;
54452;SDS011;40363;52.270;10.546;2023-05-10T01:54:11;6.10;;;3.50;;
54452;SDS011;40363;52.270;10.546;2023-05-10T01:56:39;4.18;;;3.20;;
54452;SDS011;40363;52.270;10.546;2023-05-10T01:59:08;4.78;;;3.50;;
54452;SDS011;40363;52.270;10.546;2023-05-10T02:01:39;5.53;;;3.45;;
54452;SDS011;40363;52.270;10.546;2023-05-10T02:04:08;3.88;;;2.95;;
54452;SDS011;40363;52.270;10.546;2023-05-10T02:06:37;5.03;;;2.80;;
54452;SDS011;40363;52.270;10.546;2023-05-10T02:09:05;6.40;;;3.15;;
54452;SDS011;40363;52.270;10.546;2023-05-10T02:11:34;5.18;;;3.13;;
54452;SDS011;40363;52.270;10.546;2023-05-10T02:14:03;4.30;;;3.22;;
54452;SDS011;40363;52.270;10.546;2023-05-10T02:16:31;3.92;;;3.10;;
54452;SDS011;40363;52.270;10.546;2023-05-10T02:18:58;5.10;;;3.45;;
54452;SDS011;40363;52.270;10.546;2023-05-10T02:21:28;5.00;;;3.00;;
54452;SDS011;40363;52.270;10.546;2023-05-10T02:23:57;5.18;;;3.42;;
54452;SDS011;40363;52.270;10.546;2023-05-10T02:26:27;8.05;;;3.85;;
54452;SDS011;40363;52.270;10.546;2023-05-10T02:28:55;4.20;;;3.33;;
54452;SDS011;40363;52.270;10.546;2023-05-10T02:31:23;4.13;;;3.15;;
54452;SDS011;40363;52.270;10.546;2023-05-10T02:33:54;5.85;;;3.58;;
54452;SDS011;40363;52.270;10.546;2023-05-10T02:36:23;4.60;;;3.22;;
54452;SDS011;40363;52.270;10.546;2023-05-10T02:38:53;5.45;;;3.72;;
54452;SDS011;40363;52.270;10.546;2023-05-10T02:41:21;4.45;;;3.20;;
54452;SDS011;40363;52.270;10.546;2023-05-10T02:43:51;11.07;;;3.92;;
54452;SDS011;40363;52.270;10.546;2023-05-10T02:46:22;5.07;;;3.42;;
54452;SDS011;40363;52.270;10.546;2023-05-10T02:48:49;3.97;;;3.20;;
54452;SDS011;40363;52.270;10.546;2023-05-10T02:51:16;3.58;;;3.10;;
54452;SDS011;40363;52.270;10.546;2023-05-10T02:53:44;5.13;;;3.20;;
54452;SDS011;40363;52.270;10.546;2023-05-10T02:56:20;7.43;;;3.88;;
54452;SDS011;40363;52.270;10.546;2023-05-10T02:58:55;5.03;;;3.20;;
54452;SDS011;40363;52.270;10.546;2023-05-10T03:01:24;5.68;;;3.50;;
54452;SDS011;40363;52.270;10.546;2023-05-10T03:03:51;4.07;;;3.20;;
54452;SDS011;40363;52.270;10.546;2023-05-10T03:06:24;7.60;;;3.67;;
54452;SDS011;40363;52.270;10.546;2023-05-10T03:08:53;7.22;;;4.13;;
54452;SDS011;40363;52.270;10.546;2023-05-10T03:11:26;5.30;;;3.60;;
54452;SDS011;40363;52.270;10.546;2023-05-10T03:14:07;4.68;;;3.17;;
54452;SDS011;40363;52.270;10.546;2023-05-10T03:16:40;8.00;;;3.67;;
54452;SDS011;40363;52.270;10.546;2023-05-10T03:19:12;5.93;;;3.40;;
54452;SDS011;40363;52.270;10.546;2023-05-10T03:21:47;6.05;;;3.92;;
54452;SDS011;40363;52.270;10.546;2023-05-10T03:24:24;5.80;;;3.10;;
54452;SDS011;40363;52.270;10.546;2023-05-10T03:26:55;7.57;;;4.35;;
54452;SDS011;40363;52.270;10.546;2023-05-10T03:29:25;5.90;;;3.60;;
54452;SDS011;40363;52.270;10.546;2023-05-10T03:31:52;5.47;;;3.65;;
54452;SDS011;40363;52.270;10.546;2023-05-10T03:34:22;5.47;;;3.08;;
54452;SDS011;40363;52.270;10.546;2023-05-10T03:36:49;8.30;;;4.03;;
54452;SDS011;40363;52.270;10.546;2023-05-10T03:39:16;4.55;;;3.67;;
54452;SDS011;40363;52.270;10.546;2023-05-10T03:41:43;6.38;;;3.65;;
54452;SDS011;40363;52.270;10.546;2023-05-10T03:44:11;7.07;;;4.07;;
54452;SDS011;40363;52.270;10.546;2023-05-10T03:46:37;6.85;;;3.45;;
54452;SDS011;40363;52.270;10.546;2023-05-10T03:49:04;7.00;;;4.20;;
54452;SDS011;40363;52.270;10.546;2023-05-10T03:51:30;5.15;;;3.28;;
54452;SDS011;40363;52.270;10.546;2023-05-10T03:53:57;9.48;;;4.43;;
54452;SDS011;40363;52.270;10.546;2023-05-10T03:56:23;9.50;;;4.07;;
54452;SDS011;40363;52.270;10.546;2023-05-10T03:58:50;5.97;;;3.80;;
54452;SDS011;40363;52.270;10.546;2023-05-10T04:01:18;6.07;;;3.70;;
54452;SDS011;40363;52.270;10.546;2023-05-10T04:03:44;7.78;;;3.90;;
54452;SDS011;40363;52.270;10.546;2023-05-10T04:06:11;7.65;;;4.05;;
54452;SDS011;40363;52.270;10.546;2023-05-10T04:08:38;5.60;;;3.88;;
54452;SDS011;40363;52.270;10.546;2023-05-10T04:11:04;5.43;;;3.75;;
54452;SDS011;40363;52.270;10.546;2023-05-10T04:13:32;6.05;;;3.67;;
54452;SDS011;40363;52.270;10.546;2023-05-10T04:15:59;4.50;;;3.53;;
54452;SDS011;40363;52.270;10.546;2023-05-10T04:18:27;5.30;;;3.85;;
54452;SDS011;40363;52.270;10.546;2023-05-10T04:20:53;6.55;;;4.13;;
54452;SDS011;40363;52.270;10.546;2023-05-10T04:23:20;10.13;;;4.80;;
54452;SDS011;40363;52.270;10.546;2023-05-10T04:25:46;5.50;;;3.75;;
54452;SDS011;40363;52.270;10.546;2023-05-10T04:28:13;7.85;;;4.53;;
54452;SDS011;40363;52.270;10.546;2023-05-10T04:30:39;6.43;;;4.25;;
54452;SDS011;40363;52.270;10.546;2023-05-10T04:33:06;7.05;;;4.18;;
54452;SDS011;40363;52.270;10.546;2023-05-10T04:35:34;5.03;;;4.05;;
54452;SDS011;40363;52.270;10.546;2023-05-10T04:38:00;7.00;;;3.97;;
54452;SDS011;40363;52.270;10.546;2023-05-10T04:40:27;5.53;;;4.05;;
54452;SDS011;40363;52.270;10.546;2023-05-10T04:42:54;5.90;;;4.03;;
54452;SDS011;40363;52.270;10.546;2023-05-10T04:45:20;5.40;;;4.07;;
54452;SDS011;40363;52.270;10.546;2023-05-10T04:47:47;5.10;;;3.80;;
54452;SDS011;40363;52.270;10.546;2023-05-10T04:50:13;5.55;;;3.85;;
54452;SDS011;40363;52.270;10.546;2023-05-10T04:52:41;10.70;;;4.40;;
54452;SDS011;40363;52.270;10.546;2023-05-10T04:55:08;6.32;;;4.53;;
54452;SDS011;40363;52.270;10.546;2023-05-10T04:57:35;7.15;;;4.82;;
54452;SDS011;40363;52.270;10.546;2023-05-10T05:00:01;8.15;;;4.75;;
54452;SDS011;40363;52.270;10.546;2023-05-10T05:02:29;8.32;;;4.95;;
54452;SDS011;40363;52.270;10.546;2023-05-10T05:04:55;6.22;;;4.05;;
54452;SDS011;40363;52.270;10.546;2023-05-10T05:07:22;7.05;;;4.80;;
54452;SDS011;40363;52.270;10.546;2023-05-10T05:09:50;7.13;;;4.32;;
54452;SDS011;40363;52.270;10.546;2023-05-10T05:12:17;8.68;;;4.00;;
54452;SDS011;40363;52.270;10.546;2023-05-10T05:14:43;6.50;;;4.55;;
54452;SDS011;40363;52.270;10.546;2023-05-10T05:17:10;7.38;;;4.88;;
54452;SDS011;40363;52.270;10.546;2023-05-10T05:19:36;9.23;;;5.07;;
54452;SDS011;40363;52.270;10.546;2023-05-10T05:22:03;6.97;;;5.38;;
54452;SDS011;40363;52.270;10.546;2023-05-10T05:24:34;6.18;;;4.20;;
54452;SDS011;40363;52.270;10.546;2023-05-10T05:27:03;8.85;;;5.13;;
54452;SDS011;40363;52.270;10.546;2023-05-10T05:29:30;6.38;;;4.13;;
54452;SDS011;40363;52.270;10.546;2023-05-10T05:31:57;9.25;;;4.80;;
54452;SDS011;40363;52.270;10.546;2023-05-10T05:34:23;10.38;;;4.75;;
54452;SDS011;40363;52.270;10.546;2023-05-10T05:36:50;6.57;;;3.92;;
54452;SDS011;40363;52.270;10.546;2023-05-10T05:39:17;7.30;;;4.63;;
54452;SDS011;40363;52.270;10.546;2023-05-10T05:41:43;7.38;;;4.88;;
54452;SDS011;40363;52.270;10.546;2023-05-10T05:44:12;11.40;;;4.70;;
54452;SDS011;40363;52.270;10.546;2023-05-10T05:46:39;5.85;;;3.95;;
54452;SDS011;40363;52.270;10.546;2023-05-10T05:49:05;5.60;;;4.00;;
54452;SDS011;40363;52.270;10.546;2023-05-10T05:51:32;6.93;;;4.53;;
54452;SDS011;40363;52.270;10.546;2023-05-10T05:53:59;8.32;;;4.30;;
54452;SDS011;40363;52.270;10.546;2023-05-10T05:56:26;7.85;;;4.65;;
54452;SDS011;40363;52.270;10.546;2023-05-10T05:58:52;7.93;;;4.72;;
54452;SDS011;40363;52.270;10.546;2023-05-10T06:01:20;10.02;;;5.43;;
54452;SDS011;40363;52.270;10.546;2023-05-10T06:03:47;8.10;;;5.32;;
54452;SDS011;40363;52.270;10.546;2023-05-10T06:06:13;8.38;;;4.85;;
54452;SDS011;40363;52.270;10.546;2023-05-10T06:08:40;7.28;;;4.90;;
54452;SDS011;40363;52.270;10.546;2023-05-10T06:11:06;8.48;;;4.68;;
54452;SDS011;40363;52.270;10.546;2023-05-10T06:13:33;5.32;;;4.35;;
54452;SDS011;40363;52.270;10.546;2023-05-10T06:16:00;14.43;;;4.78;;
54452;SDS011;40363;52.270;10.546;2023-05-10T06:18:28;8.65;;;4.60;;
54452;SDS011;40363;52.270;10.546;2023-05-10T06:20:55;7.13;;;4.65;;
54452;SDS011;40363;52.270;10.546;2023-05-10T06:23:21;8.32;;;4.70;;
54452;SDS011;40363;52.270;10.546;2023-05-10T06:25:48;7.53;;;4.68;;
54452;SDS011;40363;52.270;10.546;2023-05-10T06:28:14;8.23;;;5.00;;
54452;SDS011;40363;52.270;10.546;2023-05-10T06:30:41;10.32;;;4.78;;
54452;SDS011;40363;52.270;10.546;2023-05-10T06:33:07;5.60;;;4.35;;
54452;SDS011;40363;52.270;10.546;2023-05-10T06:35:35;6.97;;;4.72;;
54452;SDS011;40363;52.270;10.546;2023-05-10T06:38:02;7.90;;;4.70;;
54452;SDS011;40363;52.270;10.546;2023-05-10T06:40:28;7.85;;;4.75;;
54452;SDS011;40363;52.270;10.546;2023-05-10T06:42:55;7.38;;;4.70;;
54452;SDS011;40363;52.270;10.546;2023-05-10T06:45:21;12.70;;;4.93;;
54452;SDS011;40363;52.270;10.546;2023-05-10T06:47:48;8.45;;;4.80;;
54452;SDS011;40363;52.270;10.546;2023-05-10T06:50:14;8.80;;;4.85;;
54452;SDS011;40363;52.270;10.546;2023-05-10T06:52:42;7.38;;;4.50;;
54452;SDS011;40363;52.270;10.546;2023-05-10T06:55:09;6.85;;;4.95;;
54452;SDS011;40363;52.270;10.546;2023-05-10T06:57:36;9.27;;;4.72;;
54452;SDS011;40363;52.270;10.546;2023-05-10T07:00:03;8.05;;;4.97;;
54452;SDS011;40363;52.270;10.546;2023-05-10T07:02:31;7.50;;;4.88;;
54452;SDS011;40363;52.270;10.546;2023-05-10T07:04:57;10.35;;;6.00;;
54452;SDS011;40363;52.270;10.546;2023-05-10T07:07:24;13.00;;;5.55;;
54452;SDS011;40363;52.270;10.546;2023-05-10T07:09:51;9.15;;;5.70;;
54452;SDS011;40363;52.270;10.546;2023-05-10T07:12:18;9.18;;;5.45;;
54452;SDS011;40363;52.270;10.546;2023-05-10T07:14:45;8.02;;;5.50;;
54452;SDS011;40363;52.270;10.546;2023-05-10T07:17:11;8.32;;;5.72;;
54452;SDS011;40363;52.270;10.546;2023-05-10T07:19:38;8.48;;;6.20;;
54452;SDS011;40363;52.270;10.546;2023-05-10T07:22:04;9.65;;;5.95;;
54452;SDS011;40363;52.270;10.546;2023-05-10T07:24:31;10.95;;;6.22;;
54452;SDS011;40363;52.270;10.546;2023-05-10T07:26:59;14.60;;;6.85;;
54452;SDS011;40363;52.270;10.546;2023-05-10T07:29:26;8.32;;;5.95;;
54452;SDS011;40363;52.270;10.546;2023-05-10T07:31:53;8.77;;;6.40;;
54452;SDS011;40363;52.270;10.546;2023-05-10T07:34:20;9.25;;;5.82;;
54452;SDS011;40363;52.270;10.546;2023-05-10T07:36:46;7.13;;;5.68;;
54452;SDS011;40363;52.270;10.546;2023-05-10T07:39:13;13.43;;;6.55;;
54452;SDS011;40363;52.270;10.546;2023-05-10T07:41:39;12.23;;;7.40;;
54452;SDS011;40363;52.270;10.546;2023-05-10T07:44:07;9.77;;;6.53;;
54452;SDS011;40363;52.270;10.546;2023-05-10T07:46:33;9.75;;;6.50;;
54452;SDS011;40363;52.270;10.546;2023-05-10T07:49:00;9.75;;;6.22;;
54452;SDS011;40363;52.270;10.546;2023-05-10T07:51:26;12.98;;;6.63;;
54452;SDS011;40363;52.270;10.546;2023-05-10T07:53:53;10.07;;;6.45;;
54452;SDS011;40363;52.270;10.546;2023-05-10T07:56:21;10.40;;;6.38;;
54452;SDS011;40363;52.270;10.546;2023-05-10T07:58:49;12.10;;;7.03;;
54452;SDS011;40363;52.270;10.546;2023-05-10T08:01:17;10.50;;;6.47;;
54452;SDS011;40363;52.270;10.546;2023-05-10T08:03:44;9.80;;;6.43;;
54452;SDS011;40363;52.270;10.546;2023-05-10T08:06:11;12.55;;;7.18;;
54452;SDS011;40363;52.270;10.546;2023-05-10T08:08:37;10.40;;;6.90;;
54452;SDS011;40363;52.270;10.546;2023-05-10T08:11:04;11.07;;;6.72;;
54452;SDS011;40363;52.270;10.546;2023-05-10T08:13:30;13.40;;;7.00;;
54452;SDS011;40363;52.270;10.546;2023-05-10T08:15:57;12.25;;;6.93;;
54452;SDS011;40363;52.270;10.546;2023-05-10T08:18:25;10.38;;;6.93;;
54452;SDS011;40363;52.270;10.546;2023-05-10T08:20:52;10.77;;;6.93;;
54452;SDS011;40363;52.270;10.546;2023-05-10T08:23:19;10.70;;;6.45;;
54452;SDS011;40363;52.270;10.546;2023-05-10T08:25:46;9.13;;;5.63;;
54452;SDS011;40363;52.270;10.546;2023-05-10T08:28:13;9.52;;;6.57;;
54452;SDS011;40363;52.270;10.546;2023-05-10T08:30:40;13.75;;;7.45;;
54452;SDS011;40363;52.270;10.546;2023-05-10T08:33:06;12.55;;;7.97;;
54452;SDS011;40363;52.270;10.546;2023-05-10T08:35:34;11.57;;;6.85;;
54452;SDS011;40363;52.270;10.546;2023-05-10T08:38:00;10.30;;;6.85;;
54452;SDS011;40363;52.270;10.546;2023-05-10T08:40:27;15.05;;;7.78;;
54452;SDS011;40363;52.270;10.546;2023-05-10T08:42:55;10.80;;;6.90;;
54452;SDS011;40363;52.270;10.546;2023-05-10T08:45:25;13.90;;;8.25;;
54452;SDS011;40363;52.270;10.546;2023-05-10T08:47:57;10.68;;;7.55;;
54452;SDS011;40363;52.270;10.546;2023-05-10T08:50:25;13.88;;;6.60;;
54452;SDS011;40363;52.270;10.546;2023-05-10T08:52:54;12.23;;;6.60;;
54452;SDS011;40363;52.270;10.546;2023-05-10T08:55:23;12.10;;;7.50;;
54452;SDS011;40363;52.270;10.546;2023-05-10T08:57:50;10.60;;;7.70;;
54452;SDS011;40363;52.270;10.546;2023-05-10T09:00:17;13.23;;;7.45;;
54452;SDS011;40363;52.270;10.546;2023-05-10T09:02:44;12.85;;;6.95;;
54452;SDS011;40363;52.270;10.546;2023-05-10T09:05:11;12.73;;;6.70;;
54452;SDS011;40363;52.270;10.546;2023-05-10T09:07:40;14.95;;;7.70;;
54452;SDS011;40363;52.270;10.546;2023-05-10T09:10:09;13.07;;;8.23;;
54452;SDS011;40363;52.270;10.546;2023-05-10T09:12:37;12.98;;;7.70;;
54452;SDS011;40363;52.270;10.546;2023-05-10T09:15:05;10.80;;;8.27;;
54452;SDS011;40363;52.270;10.546;2023-05-10T09:17:33;11.48;;;6.97;;
54452;SDS011;40363;52.270;10.546;2023-05-10T09:20:00;11.80;;;7.70;;
54452;SDS011;40363;52.270;10.546;2023-05-10T09:22:29;10.80;;;6.90;;
54452;SDS011;40363;52.270;10.546;2023-05-10T09:25:05;10.00;;;7.05;;
54452;SDS011;40363;52.270;10.546;2023-05-10T09:27:38;15.25;;;7.10;;
54452;SDS011;40363;52.270;10.546;2023-05-10T09:30:15;10.82;;;6.93;;
54452;SDS011;40363;52.270;10.546;2023-05-10T09:32:42;11.30;;;7.40;;
54452;SDS011;40363;52.270;10.546;2023-05-10T09:35:10;13.82;;;8.45;;
54452;SDS011;40363;52.270;10.546;2023-05-10T09:37:41;10.00;;;6.93;;
54452;SDS011;40363;52.270;10.546;2023-05-10T09:40:11;11.73;;;8.00;;
54452;SDS011;40363;52.270;10.546;2023-05-10T09:42:40;11.35;;;7.25;;
54452;SDS011;40363;52.270;10.546;2023-05-10T09:45:08;10.10;;;6.35;;
54452;SDS011;40363;52.270;10.546;2023-05-10T09:47:35;11.10;;;7.25;;
54452;SDS011;40363;52.270;10.546;2023-05-10T09:50:02;12.25;;;8.15;;
54452;SDS011;40363;52.270;10.546;2023-05-10T09:52:30;9.77;;;6.88;;
54452;SDS011;40363;52.270;10.546;2023-05-10T09:54:57;11.02;;;7.28;;
54452;SDS011;40363;52.270;10.546;2023-05-10T09:57:24;11.30;;;7.07;;
54452;SDS011;40363;52.270;10.546;2023-05-10T09:59:52;6.88;;;6.00;;
54452;SDS011;40363;52.270;10.546;2023-05-10T10:02:20;8.55;;;5.22;;
54452;SDS011;40363;52.270;10.546;2023-05-10T10:04:48;8.10;;;4.82;;
54452;SDS011;40363;52.270;10.546;2023-05-10T10:07:17;6.68;;;4.05;;
54452;SDS011;40363;52.270;10.546;2023-05-10T10:09:48;4.25;;;2.63;;
54452;SDS011;40363;52.270;10.546;2023-05-10T10:12:15;4.85;;;2.40;;
54452;SDS011;40363;52.270;10.546;2023-05-10T10:14:41;2.80;;;1.65;;
54452;SDS011;40363;52.270;10.546;2023-05-10T10:17:10;2.30;;;1.70;;
54452;SDS011;40363;52.270;10.546;2023-05-10T10:19:38;2.85;;;1.85;;
54452;SDS011;40363;52.270;10.546;2023-05-10T10:22:05;4.20;;;1.70;;
54452;SDS011;40363;52.270;10.546;2023-05-10T10:24:32;3.25;;;1.63;;
54452;SDS011;40363;52.270;10.546;2023-05-10T10:27:00;3.42;;;1.50;;
54452;SDS011;40363;52.270;10.546;2023-05-10T10:29:36;2.55;;;1.48;;
54452;SDS011;40363;52.270;10.546;2023-05-10T10:32:07;1.67;;;1.00;;
54452;SDS011;40363;52.270;10.546;2023-05-10T10:34:45;1.70;;;0.98;;
54452;SDS011;40363;52.270;10.546;2023-05-10T10:37:13;1.83;;;1.00;;
54452;SDS011;40363;52.270;10.546;2023-05-10T10:39:39;0.98;;;0.73;;
54452;SDS011;40363;52.270;10.546;2023-05-10T10:42:06;1.10;;;0.85;;
54452;SDS011;40363;52.270;10.546;2023-05-10T10:44:33;1.58;;;0.90;;
54452;SDS011;40363;52.270;10.546;2023-05-10T10:50:01;1.20;;;0.77;;
54452;SDS011;40363;52.270;10.546;2023-05-10T10:52:31;1.40;;;0.90;;
54452;SDS011;40363;52.270;10.546;2023-05-10T10:55:00;1.20;;;0.80;;
54452;SDS011;40363;52.270;10.546;2023-05-10T10:57:31;1.15;;;0.82;;
54452;SDS011;40363;52.270;10.546;2023-05-10T11:02:53;1.15;;;1.02;;
54452;SDS011;40363;52.270;10.546;2023-05-10T11:05:23;3.28;;;1.00;;
54452;SDS011;40363;52.270;10.546;2023-05-10T11:07:51;1.65;;;0.95;;
54452;SDS011;40363;52.270;10.546;2023-05-10T11:10:19;1.15;;;0.88;;
54452;SDS011;40363;52.270;10.546;2023-05-10T11:12:52;1.10;;;0.85;;
54452;SDS011;40363;52.270;10.546;2023-05-10T11:15:20;0.95;;;0.85;;
54452;SDS011;40363;52.270;10.546;2023-05-10T11:17:56;1.35;;;0.80;;
54452;SDS011;40363;52.270;10.546;2023-05-10T11:20:23;1.40;;;1.08;;
54452;SDS011;40363;52.270;10.546;2023-05-10T11:22:58;1.15;;;0.82;;
54452;SDS011;40363;52.270;10.546;2023-05-10T11:25:40;1.27;;;0.85;;
54452;SDS011;40363;52.270;10.546;2023-05-10T11:28:08;1.20;;;1.00;;
54452;SDS011;40363;52.270;10.546;2023-05-10T11:30:34;0.80;;;0.77;;
54452;SDS011;40363;52.270;10.546;2023-05-10T11:33:03;1.63;;;1.10;;
54452;SDS011;40363;52.270;10.546;2023-05-10T11:35:30;1.15;;;0.90;;
54452;SDS011;40363;52.270;10.546;2023-05-10T11:37:56;2.05;;;0.90;;
54452;SDS011;40363;52.270;10.546;2023-05-10T11:40:23;2.92;;;1.23;;
54452;SDS011;40363;52.270;10.546;2023-05-10T11:42:51;2.83;;;1.13;;
54452;SDS011;40363;52.270;10.546;2023-05-10T11:45:18;1.52;;;1.20;;
54452;SDS011;40363;52.270;10.546;2023-05-10T11:47:44;1.58;;;0.98;;
54452;SDS011;40363;52.270;10.546;2023-05-10T11:50:17;1.40;;;1.10;;
54452;SDS011;40363;52.270;10.546;2023-05-10T11:52:49;1.73;;;1.27;;
54452;SDS011;40363;52.270;10.546;2023-05-10T11:55:17;1.48;;;0.95;;
54452;SDS011;40363;52.270;10.546;2023-05-10T11:57:43;3.88;;;1.48;;
54452;SDS011;40363;52.270;10.546;2023-05-10T12:00:11;2.95;;;1.45;;
54452;SDS011;40363;52.270;10.546;2023-05-10T12:02:38;2.00;;;1.20;;
54452;SDS011;40363;52.270;10.546;2023-05-10T12:05:06;9.82;;;1.25;;
54452;SDS011;40363;52.270;10.546;2023-05-10T12:07:35;1.60;;;0.90;;
54452;SDS011;40363;52.270;10.546;2023-05-10T12:10:05;2.47;;;1.00;;
54452;SDS011;40363;52.270;10.546;2023-05-10T12:12:39;1.88;;;0.90;;
54452;SDS011;40363;52.270;10.546;2023-05-10T12:15:11;2.40;;;1.02;;
54452;SDS011;40363;52.270;10.546;2023-05-10T12:17:43;0.98;;;0.80;;
54452;SDS011;40363;52.270;10.546;2023-05-10T12:20:14;2.28;;;0.80;;
54452;SDS011;40363;52.270;10.546;2023-05-10T12:22:44;1.05;;;0.88;;
54452;SDS011;40363;52.270;10.546;2023-05-10T12:25:12;3.20;;;1.00;;
54452;SDS011;40363;52.270;10.546;2023-05-10T12:27:41;1.60;;;1.08;;
54452;SDS011;40363;52.270;10.546;2023-05-10T12:30:13;1.58;;;0.80;;
54452;SDS011;40363;52.270;10.546;2023-05-10T12:32:45;3.50;;;1.20;;
54452;SDS011;40363;52.270;10.546;2023-05-10T12:35:12;1.50;;;1.00;;
54452;SDS011;40363;52.270;10.546;2023-05-10T12:37:39;1.23;;;0.80;;
54452;SDS011;40363;52.270;10.546;2023-05-10T12:40:08;1.20;;;1.00;;
54452;SDS011;40363;52.270;10.546;2023-05-10T12:42:36;1.15;;;0.70;;
54452;SDS011;40363;52.270;10.546;2023-05-10T12:45:03;2.45;;;1.17;;
54452;SDS011;40363;52.270;10.546;2023-05-10T12:47:30;2.45;;;1.38;;
54452;SDS011;40363;52.270;10.546;2023-05-10T12:49:57;0.95;;;0.80;;
54452;SDS011;40363;52.270;10.546;2023-05-10T12:52:25;1.02;;;0.68;;
54452;SDS011;40363;52.270;10.546;2023-05-10T12:54:51;1.10;;;1.00;;
54452;SDS011;40363;52.270;10.546;2023-05-10T12:57:20;1.42;;;0.80;;
54452;SDS011;40363;52.270;10.546;2023-05-10T12:59:46;1.95;;;1.30;;
54452;SDS011;40363;52.270;10.546;2023-05-10T13:02:13;2.08;;;1.13;;
54452;SDS011;40363;52.270;10.546;2023-05-10T13:04:40;1.33;;;0.88;;
54452;SDS011;40363;52.270;10.546;2023-05-10T13:07:07;1.13;;;0.90;;
54452;SDS011;40363;52.270;10.546;2023-05-10T13:09:33;1.30;;;1.00;;
54452;SDS011;40363;52.270;10.546;2023-05-10T13:12:00;2.33;;;1.20;;
54452;SDS011;40363;52.270;10.546;2023-05-10T13:14:29;2.50;;;1.23;;
54452;SDS011;40363;52.270;10.546;2023-05-10T13:16:55;1.50;;;0.90;;
54452;SDS011;40363;52.270;10.546;2023-05-10T13:19:22;2.92;;;1.10;;
54452;SDS011;40363;52.270;10.546;2023-05-10T13:21:49;1.42;;;0.90;;
54452;SDS011;40363;52.270;10.546;2023-05-10T13:24:15;1.58;;;1.10;;
54452;SDS011;40363;52.270;10.546;2023-05-10T13:26:42;2.17;;;1.00;;
54452;SDS011;40363;52.270;10.546;2023-05-10T13:29:09;2.40;;;1.10;;
54452;SDS011;40363;52.270;10.546;2023-05-10T13:31:37;1.63;;;0.88;;
54452;SDS011;40363;52.270;10.546;2023-05-10T13:34:04;1.80;;;1.27;;
54452;SDS011;40363;52.270;10.546;2023-05-10T13:36:31;2.67;;;1.00;;
54452;SDS011;40363;52.270;10.546;2023-05-10T13:38:58;1.65;;;1.15;;
54452;SDS011;40363;52.270;10.546;2023-05-10T13:41:26;1.85;;;1.10;;
54452;SDS011;40363;52.270;10.546;2023-05-10T13:43:53;2.25;;;1.25;;
54452;SDS011;40363;52.270;10.546;2023-05-10T13:46:19;5.28;;;1.15;;
54452;SDS011;40363;52.270;10.546;2023-05-10T13:48:47;1.65;;;1.02;;
54452;SDS011;40363;52.270;10.546;2023-05-10T13:51:14;2.72;;;1.08;;
54452;SDS011;40363;52.270;10.546;2023-05-10T13:53:40;3.55;;;1.10;;
54452;SDS011;40363;52.270;10.546;2023-05-10T13:56:07;3.25;;;1.25;;
54452;SDS011;40363;52.270;10.546;2023-05-10T13:58:34;1.58;;;1.05;;
54452;SDS011;40363;52.270;10.546;2023-05-10T14:01:01;3.10;;;1.27;;
54452;SDS011;40363;52.270;10.546;2023-05-10T14:03:28;1.70;;;1.30;;
54452;SDS011;40363;52.270;10.546;2023-05-10T14:05:56;1.27;;;1.13;;
54452;SDS011;40363;52.270;10.546;2023-05-10T14:08:22;1.25;;;1.10;;
54452;SDS011;40363;52.270;10.546;2023-05-10T14:10:49;2.33;;;1.33;;
54452;SDS011;40363;52.270;10.546;2023-05-10T14:13:17;2.53;;;1.00;;
54452;SDS011;40363;52.270;10.546;2023-05-10T14:15:43;3.33;;;1.25;;
54452;SDS011;40363;52.270;10.546;2023-05-10T14:18:10;2.80;;;1.30;;
54452;SDS011;40363;52.270;10.546;2023-05-10T14:20:36;2.25;;;1.10;;
54452;SDS011;40363;52.270;10.546;2023-05-10T14:23:04;3.78;;;0.93;;
54452;SDS011;40363;52.270;10.546;2023-05-10T14:25:31;2.17;;;1.02;;
54452;SDS011;40363;52.270;10.546;2023-05-10T14:27:58;2.15;;;1.00;;
54452;SDS011;40363;52.270;10.546;2023-05-10T14:30:24;3.13;;;1.05;;
54452;SDS011;40363;52.270;10.546;2023-05-10T14:32:51;2.08;;;1.38;;
54452;SDS011;40363;52.270;10.546;2023-05-10T14:35:19;3.92;;;1.58;;
54452;SDS011;40363;52.270;10.546;2023-05-10T14:37:45;4.00;;;1.23;;
54452;SDS011;40363;52.270;10.546;2023-05-10T14:40:14;2.63;;;1.52;;
54452;SDS011;40363;52.270;10.546;2023-05-10T14:42:42;2.72;;;1.80;;
54452;SDS011;40363;52.270;10.546;2023-05-10T14:45:09;2.83;;;0.93;;
54452;SDS011;40363;52.270;10.546;2023-05-10T14:47:37;1.23;;;1.02;;